Adelaide, California
Current Conditions -  °F | °C
As of 1:53 AM on Saturday 01 Nov 2014 (Local Time) from KPRB Reporting Station
Light Rain Light Rain  
Wind Chill: 54°   Ceiling: 6000
Heat Index: 54°   Visibility: 10mi
Dew Point: 51°   Wind: 5mph
Humidity: 90%   Direction: 230°SW
Pressure: 29.8"   Gusts: NA
Location:  35.6618°N, 120.707°W
Report Text: KPRB 010853Z AUTO 23004KT 10SM -RA OVC060 12/11 A2980 RMK AO2 RAE0757B35 SLP089 P0001 60003 T01220106 53003 TSNO $
Loading
Personal Weather Stations






























Interactive Weather Map
Tropical Storm Tracking
New forecast layout! Learn more

10-Day Weather Forecast

Advertisements
Track Severe Weather on mobile